createdAt,value
2019-04-23T00:01:07.571Z,7.10
2019-04-23T00:05:49.083Z,7.40
2019-04-23T00:10:42.973Z,6.87
2019-04-23T00:15:48.161Z,5.90
2019-04-23T00:20:25.817Z,5.90
2019-04-23T00:30:12.865Z,6.80
2019-04-23T00:39:52.411Z,7.13
2019-04-23T00:44:54.411Z,7.63
2019-04-23T00:49:40.092Z,6.70
2019-04-23T00:54:26.351Z,7.63
2019-04-23T00:59:21.420Z,7.83
2019-04-23T01:04:15.767Z,7.60
2019-04-23T01:09:02.177Z,7.90
2019-04-23T01:18:51.400Z,7.53
2019-04-23T01:23:45.880Z,7.00
2019-04-23T01:28:55.788Z,8.40
2019-04-23T01:33:47.075Z,7.27
2019-04-23T01:38:42.251Z,8.10
2019-04-23T01:43:30.279Z,8.27
2019-04-23T01:48:13.219Z,8.00
2019-04-23T01:53:14.371Z,8.10
2019-04-23T02:02:56.129Z,8.00
2019-04-23T02:07:51.015Z,8.30
2019-04-23T02:12:35.788Z,8.20
2019-04-23T02:17:23.387Z,7.97
2019-04-23T02:22:31.616Z,8.23
2019-04-23T02:27:07.306Z,7.90
2019-04-23T02:32:02.908Z,9.57
2019-04-23T02:36:57.817Z,8.90
2019-04-23T02:41:54.418Z,8.37
2019-04-23T02:46:44.032Z,8.80
2019-04-23T02:51:26.763Z,9.73
2019-04-23T02:56:39.552Z,8.50
2019-04-23T03:10:59.592Z,8.77
2019-04-23T03:21:26.188Z,9.05
2019-04-23T03:26:40.746Z,9.03
2019-04-23T03:40:46.294Z,8.97
2019-04-23T03:55:32.338Z,9.47
2019-04-23T04:05:08.103Z,9.20
2019-04-23T04:14:49.225Z,9.93
2019-04-23T04:29:27.552Z,9.07
2019-04-23T04:39:06.252Z,9.50
2019-04-23T04:48:44.358Z,9.10
2019-04-23T04:58:21.191Z,8.80
2019-04-23T05:08:05.516Z,8.73
2019-04-23T05:12:59.506Z,8.67
2019-04-23T05:17:57.252Z,8.83
2019-04-23T05:22:46.550Z,8.43
2019-04-23T05:27:28.803Z,8.70
2019-04-23T05:32:14.904Z,7.50
2019-04-23T05:37:14.800Z,7.60
2019-04-23T05:41:55.908Z,7.20
2019-04-23T05:46:45.890Z,8.13
2019-04-23T05:51:44.550Z,7.50
2019-04-23T05:56:27.831Z,7.82
2019-04-23T06:01:45.225Z,7.40
2019-04-23T06:06:20.950Z,7.10
2019-04-23T06:11:16.974Z,7.93
2019-04-23T06:15:53.941Z,7.20
2019-04-23T06:20:54.353Z,7.03
2019-04-23T06:30:35.206Z,7.50
2019-04-23T06:35:19.217Z,7.50
2019-04-23T06:40:08.436Z,7.87
2019-04-23T06:45:02.240Z,6.70
2019-04-23T06:54:51.399Z,6.93
2019-04-23T07:04:25.953Z,7.20
2019-04-23T07:14:26.141Z,7.20
2019-04-23T07:28:50.374Z,5.87
2019-04-23T07:33:36.518Z,6.40
2019-04-23T07:38:36.894Z,6.50
2019-04-23T07:43:20.187Z,6.80
2019-04-23T07:53:37.227Z,6.30
2019-04-23T07:58:23.826Z,6.17
2019-04-23T08:08:03.560Z,5.63
2019-04-23T08:13:02.756Z,5.90
2019-04-23T08:17:41.561Z,6.30
2019-04-23T08:22:44.134Z,5.13
2019-04-23T08:27:29.703Z,5.43
2019-04-23T08:32:18.602Z,4.37
2019-04-23T08:42:21.677Z,5.80
2019-04-23T08:51:54.786Z,5.30
2019-04-23T08:56:44.481Z,5.30
2019-04-23T09:01:24.858Z,5.40
2019-04-23T09:06:21.741Z,5.20
2019-04-23T09:11:30.105Z,5.30
2019-04-23T09:16:22.374Z,5.60
2019-04-23T09:20:54.758Z,5.23
2019-04-23T09:25:55.834Z,4.57
2019-04-23T09:30:47.572Z,4.67
2019-04-23T09:45:48.435Z,4.80
2019-04-23T09:50:46.855Z,4.67
2019-04-23T10:05:03.273Z,3.83
2019-04-23T10:09:36.442Z,4.57
2019-04-23T10:14:28.372Z,4.80
2019-04-23T10:19:18.966Z,4.37
2019-04-23T10:24:09.605Z,4.47
2019-04-23T10:29:02.103Z,4.97
2019-04-23T10:33:52.461Z,4.50
2019-04-23T10:38:54.327Z,4.80
2019-04-23T10:43:39.171Z,5.07
2019-04-23T10:49:19.760Z,4.70
2019-04-23T10:53:52.251Z,4.70
2019-04-23T10:58:39.928Z,3.80
2019-04-23T11:08:23.947Z,5.00
2019-04-23T11:13:25.593Z,5.15
2019-04-23T11:18:08.840Z,5.20
2019-04-23T11:22:56.820Z,5.13
2019-04-23T11:37:53.376Z,5.60
2019-04-23T11:42:32.131Z,5.10
2019-04-23T11:47:42.583Z,5.87
2019-04-23T11:52:18.891Z,4.50
2019-04-23T12:31:47.714Z,5.25
2019-04-23T12:36:41.042Z,4.60
2019-04-23T12:41:36.903Z,5.20
2019-04-23T12:46:29.909Z,4.70
2019-04-23T12:51:17.534Z,4.67
2019-04-23T12:56:11.621Z,5.40
2019-04-23T13:01:01.513Z,5.53
2019-04-23T13:05:36.045Z,5.12
2019-04-23T13:15:30.040Z,5.40
2019-04-23T13:20:23.584Z,5.00
2019-04-23T13:25:20.228Z,5.60
2019-04-23T13:30:14.080Z,6.10
2019-04-23T13:35:11.049Z,5.55
2019-04-23T13:39:43.963Z,4.97
2019-04-23T13:44:42.477Z,5.83
2019-04-23T13:49:27.796Z,5.63
2019-04-23T13:54:27.771Z,6.10
2019-04-23T13:59:16.666Z,5.97
2019-04-23T14:04:06.226Z,5.45
2019-04-23T14:13:52.100Z,6.23
2019-04-23T14:23:31.544Z,5.97
2019-04-23T14:28:21.708Z,5.80
2019-04-23T14:33:24.915Z,6.30
2019-04-23T14:38:19.986Z,6.13
2019-04-23T14:43:03.457Z,6.23
2019-04-23T14:47:50.454Z,7.15
2019-04-23T14:52:38.791Z,6.47
2019-04-23T15:02:19.831Z,6.50
2019-04-23T15:12:11.267Z,6.77
2019-04-23T15:16:51.470Z,6.70
2019-04-23T15:41:10.165Z,6.43
2019-04-23T15:45:52.680Z,6.80
2019-04-23T15:50:57.484Z,7.07
2019-04-23T15:55:35.155Z,6.47
2019-04-23T16:00:25.902Z,6.10
2019-04-23T16:04:51.200Z,6.77
2019-04-23T16:15:03.730Z,7.10
2019-04-23T16:20:06.106Z,6.90
2019-04-23T16:24:48.493Z,6.97
2019-04-23T16:29:53.786Z,6.63
2019-04-23T16:34:28.875Z,6.90
2019-04-23T16:39:18.521Z,7.20
2019-04-23T16:44:11.240Z,7.10
2019-04-23T16:53:56.697Z,7.43
2019-04-23T17:08:42.418Z,7.20
2019-04-23T17:13:20.542Z,7.43
2019-04-23T17:18:11.928Z,8.50
2019-04-23T17:23:05.516Z,8.33
2019-04-23T17:27:55.356Z,8.00
2019-04-23T17:32:34.392Z,8.97
2019-04-23T17:37:33.316Z,7.57
2019-04-23T17:47:24.563Z,8.88
2019-04-23T17:52:15.731Z,8.60
2019-04-23T18:02:16.425Z,8.00
2019-04-23T18:06:41.313Z,8.03
2019-04-23T18:11:30.024Z,8.90
2019-04-23T18:16:35.587Z,8.52
2019-04-23T18:26:45.843Z,9.60
2019-04-23T18:36:59.398Z,8.50
2019-04-23T18:41:43.408Z,9.10
2019-04-23T18:46:33.457Z,7.97
2019-04-23T18:51:21.459Z,9.33
2019-04-23T19:01:27.781Z,8.40
2019-04-23T19:06:06.991Z,8.50
2019-04-23T19:10:56.107Z,8.70
2019-04-23T19:15:40.653Z,8.97
2019-04-23T19:25:33.798Z,9.37
2019-04-23T19:30:38.477Z,9.10
2019-04-23T19:35:32.976Z,8.67
2019-04-23T19:40:02.111Z,7.93
2019-04-23T19:44:53.873Z,7.50
2019-04-23T19:49:50.245Z,7.10
2019-04-23T19:59:39.533Z,6.40
2019-04-23T20:04:21.518Z,5.73
2019-04-23T20:09:30.680Z,6.03
2019-04-23T20:14:02.424Z,5.97
2019-04-23T20:29:01.966Z,6.35
2019-04-23T20:38:48.342Z,5.67
2019-04-23T20:43:16.443Z,6.33
2019-04-23T20:48:06.974Z,6.13
2019-04-23T20:52:51.724Z,5.97
2019-04-23T21:03:08.257Z,5.03
2019-04-23T21:07:49.127Z,5.13
2019-04-23T21:12:43.212Z,5.93
2019-04-23T21:17:16.263Z,5.40
2019-04-23T21:22:09.531Z,5.37
2019-04-23T21:27:01.658Z,5.00
2019-04-23T21:31:48.003Z,5.30
2019-04-23T21:41:39.907Z,4.90
2019-04-23T21:46:23.749Z,5.07
2019-04-23T21:51:22.933Z,5.10
2019-04-23T21:56:08.907Z,4.93
2019-04-23T22:00:58.718Z,4.67
2019-04-23T22:05:52.747Z,4.10
2019-04-23T22:10:31.868Z,3.57
2019-04-23T22:15:34.565Z,3.40
2019-04-23T22:20:26.080Z,3.40
2019-04-23T22:25:25.279Z,3.60
2019-04-23T22:30:00.412Z,3.60
2019-04-23T22:34:57.144Z,3.47
2019-04-23T22:39:46.948Z,2.90
2019-04-23T22:44:39.189Z,3.47
2019-04-23T22:49:32.506Z,3.20
2019-04-23T23:03:58.952Z,3.47
2019-04-23T23:08:59.870Z,2.93
2019-04-23T23:13:52.204Z,2.97
2019-04-23T23:18:31.005Z,3.20
2019-04-23T23:23:21.348Z,3.43
2019-04-23T23:33:12.900Z,3.20
2019-04-23T23:38:05.433Z,3.33
2019-04-23T23:43:05.789Z,3.40
2019-04-23T23:47:43.146Z,4.50
2019-04-23T23:52:42.693Z,3.97
